createdAt,value
2022-12-14T00:01:41.016Z,89.16
2022-12-14T00:04:07.540Z,89.16
2022-12-14T00:06:34.398Z,88.84
2022-12-14T00:09:03.347Z,88.87
2022-12-14T00:11:31.756Z,88.87
2022-12-14T00:14:00.561Z,88.98
2022-12-14T00:16:31.024Z,88.56
2022-12-14T00:18:59.598Z,88.94
2022-12-14T00:21:27.141Z,88.44
2022-12-14T00:23:55.315Z,88.23
2022-12-14T00:26:32.387Z,88.59
2022-12-14T00:29:01.006Z,88.42
2022-12-14T00:31:28.156Z,88.54
2022-12-14T00:33:55.375Z,88.72
2022-12-14T00:36:23.650Z,88.66
2022-12-14T00:38:51.107Z,88.27
2022-12-14T00:41:17.555Z,88.41
2022-12-14T00:43:44.130Z,88.04
2022-12-14T00:46:10.706Z,88.22
2022-12-14T00:48:37.231Z,87.99
2022-12-14T00:51:04.040Z,88.00
2022-12-14T00:53:31.076Z,88.34
2022-12-14T00:55:57.627Z,88.27
2022-12-14T00:58:25.231Z,88.44
2022-12-14T01:01:00.966Z,88.18
2022-12-14T01:03:28.383Z,88.14
2022-12-14T01:05:55.234Z,88.00
2022-12-14T01:08:22.219Z,88.13
2022-12-14T01:10:50.355Z,88.13
2022-12-14T01:13:17.261Z,88.23
2022-12-14T01:15:43.964Z,88.60
2022-12-14T01:18:10.448Z,88.08
2022-12-14T01:20:36.883Z,88.16
2022-12-14T01:23:03.338Z,88.17
2022-12-14T01:25:29.818Z,88.57
2022-12-14T01:27:56.551Z,88.98
2022-12-14T01:30:23.024Z,89.12
2022-12-14T01:32:49.619Z,88.80
2022-12-14T01:35:17.401Z,88.56
2022-12-14T01:37:43.965Z,88.61
2022-12-14T01:40:10.702Z,88.51
2022-12-14T01:42:37.724Z,88.94
2022-12-14T01:45:05.799Z,88.85
2022-12-14T01:47:43.467Z,88.86
2022-12-14T01:50:21.070Z,88.70
2022-12-14T01:52:49.648Z,88.67
2022-12-14T01:55:24.652Z,88.03
2022-12-14T01:58:06.997Z,88.54
2022-12-14T02:00:33.425Z,89.39
2022-12-14T02:03:12.600Z,89.03
2022-12-14T02:05:44.075Z,88.96
2022-12-14T02:08:11.868Z,89.17
2022-12-14T02:10:38.549Z,88.93
2022-12-14T02:13:14.753Z,89.13
2022-12-14T02:15:42.235Z,89.23
2022-12-14T02:18:14.640Z,88.92
2022-12-14T02:21:22.685Z,89.33
2022-12-14T02:24:18.494Z,89.16
2022-12-14T02:27:01.206Z,88.58
2022-12-14T02:29:40.000Z,88.77
2022-12-14T02:32:21.550Z,88.67
2022-12-14T02:35:28.068Z,88.68
2022-12-14T02:38:27.687Z,88.79
2022-12-14T02:41:20.941Z,88.96
2022-12-14T02:43:47.499Z,88.90
2022-12-14T02:46:21.199Z,88.52
2022-12-14T02:49:15.295Z,88.89
2022-12-14T02:52:02.684Z,88.70
2022-12-14T02:54:42.064Z,88.62
2022-12-14T02:57:15.657Z,88.38
2022-12-14T02:59:43.444Z,88.32
2022-12-14T03:02:10.917Z,88.50
2022-12-14T03:04:45.817Z,87.94
2022-12-14T03:07:31.558Z,87.90
2022-12-14T03:10:32.477Z,87.92
2022-12-14T03:13:16.474Z,87.55
2022-12-14T03:15:47.306Z,87.30
2022-12-14T03:18:19.560Z,87.24
2022-12-14T03:20:51.987Z,86.99
2022-12-14T03:23:22.757Z,87.20
2022-12-14T03:26:01.424Z,87.06
2022-12-14T03:28:36.051Z,86.98
2022-12-14T03:31:13.473Z,86.99
2022-12-14T03:33:42.678Z,86.58
2022-12-14T03:36:17.083Z,86.78
2022-12-14T03:38:48.904Z,86.85
2022-12-14T03:41:36.779Z,86.46
2022-12-14T03:44:29.362Z,86.33
2022-12-14T03:47:46.513Z,86.36
2022-12-14T03:50:31.597Z,86.36
2022-12-14T03:53:06.462Z,86.37
2022-12-14T03:56:15.396Z,86.59
2022-12-14T03:59:18.280Z,86.45
2022-12-14T04:01:55.534Z,86.05
2022-12-14T04:04:33.345Z,86.17
2022-12-14T04:07:10.035Z,85.77
2022-12-14T04:10:39.041Z,85.90
2022-12-14T04:13:30.598Z,85.69
2022-12-14T04:16:19.953Z,86.27
2022-12-14T04:19:02.209Z,85.88
2022-12-14T04:21:43.476Z,85.80
2022-12-14T04:24:35.920Z,85.93
2022-12-14T04:27:10.820Z,85.61
2022-12-14T04:29:59.127Z,85.73
2022-12-14T04:32:28.629Z,85.88
2022-12-14T04:35:03.668Z,85.78
2022-12-14T04:37:31.181Z,85.65
2022-12-14T04:40:14.736Z,85.66
2022-12-14T04:42:49.775Z,85.21
2022-12-14T04:45:25.781Z,85.70
2022-12-14T04:48:00.030Z,85.36
2022-12-14T04:50:35.425Z,85.52
2022-12-14T04:53:13.920Z,85.88
2022-12-14T04:55:49.391Z,85.62
2022-12-14T04:58:28.265Z,85.45
2022-12-14T05:01:21.204Z,85.74
2022-12-14T05:04:12.954Z,85.47
2022-12-14T05:06:54.430Z,85.79
2022-12-14T05:09:43.041Z,85.66
2022-12-14T05:12:21.197Z,85.75
2022-12-14T05:15:17.547Z,85.73
2022-12-14T05:17:44.522Z,85.77
2022-12-14T05:20:17.368Z,86.05
2022-12-14T05:22:44.513Z,85.76
2022-12-14T05:25:11.491Z,85.56
2022-12-14T05:27:38.153Z,85.40
2022-12-14T05:30:06.559Z,85.24
2022-12-14T05:32:33.657Z,85.08
2022-12-14T05:35:00.261Z,84.88
2022-12-14T05:37:27.270Z,85.17
2022-12-14T05:39:54.594Z,84.81
2022-12-14T05:42:21.531Z,85.30
2022-12-14T05:44:48.104Z,85.15
2022-12-14T05:47:14.793Z,85.17
2022-12-14T05:49:41.396Z,85.16
2022-12-14T05:52:07.840Z,85.39
2022-12-14T05:54:34.242Z,85.36
2022-12-14T05:57:00.697Z,84.85
2022-12-14T05:59:27.304Z,84.79
2022-12-14T06:01:54.114Z,84.68
2022-12-14T06:04:20.777Z,84.63
2022-12-14T06:06:47.412Z,84.56
2022-12-14T06:09:16.719Z,84.23
2022-12-14T06:11:44.609Z,84.29
2022-12-14T06:14:12.512Z,84.41
2022-12-14T06:16:44.188Z,84.26
2022-12-14T06:19:12.134Z,83.97
2022-12-14T06:21:40.148Z,84.24
2022-12-14T06:24:07.599Z,84.27
2022-12-14T06:26:40.768Z,84.23
2022-12-14T06:29:08.634Z,84.28
2022-12-14T06:31:35.091Z,84.53
2022-12-14T06:34:03.203Z,84.21
2022-12-14T06:36:32.669Z,84.21
2022-12-14T06:39:05.291Z,84.38
2022-12-14T06:41:32.364Z,84.58
2022-12-14T06:44:05.493Z,84.39
2022-12-14T06:46:32.369Z,84.57
2022-12-14T06:48:59.048Z,84.65
2022-12-14T06:51:26.049Z,84.77
2022-12-14T06:53:54.498Z,84.58
2022-12-14T06:56:22.239Z,84.61
2022-12-14T06:58:48.809Z,84.69
2022-12-14T07:01:23.843Z,84.38
2022-12-14T07:03:55.526Z,84.32
2022-12-14T07:06:23.463Z,84.25
2022-12-14T07:08:53.580Z,83.99
2022-12-14T07:11:20.476Z,84.52
2022-12-14T07:13:48.898Z,84.67
2022-12-14T07:16:20.514Z,85.00
2022-12-14T07:18:47.505Z,84.64
2022-12-14T07:21:15.801Z,84.96
2022-12-14T07:23:44.222Z,84.81
2022-12-14T07:26:14.747Z,84.94
2022-12-14T07:28:42.299Z,84.73
2022-12-14T07:31:20.919Z,85.03
2022-12-14T07:33:48.339Z,85.18
2022-12-14T07:36:20.365Z,85.44
2022-12-14T07:38:49.432Z,84.76
2022-12-14T07:41:22.848Z,85.14
2022-12-14T07:43:51.347Z,85.64
2022-12-14T07:46:21.661Z,85.57
2022-12-14T07:48:53.964Z,85.44
2022-12-14T07:51:28.598Z,85.07
2022-12-14T07:53:56.217Z,84.73
2022-12-14T07:56:25.226Z,85.31
2022-12-14T07:58:52.625Z,85.19
2022-12-14T08:01:22.368Z,84.84
2022-12-14T08:03:55.540Z,84.93
2022-12-14T08:06:24.158Z,84.88
2022-12-14T08:08:51.627Z,84.98
2022-12-14T08:11:18.867Z,84.95
2022-12-14T08:13:46.773Z,84.75
2022-12-14T08:16:15.985Z,85.02
2022-12-14T08:18:43.973Z,85.27
2022-12-14T08:21:12.212Z,85.07
2022-12-14T08:23:39.082Z,85.77
2022-12-14T08:26:06.480Z,85.71
2022-12-14T08:28:34.090Z,85.54
2022-12-14T08:31:06.661Z,85.65
2022-12-14T08:33:34.568Z,85.50
2022-12-14T08:36:08.840Z,85.92
2022-12-14T08:38:36.276Z,85.86
2022-12-14T08:41:07.826Z,86.17
2022-12-14T08:43:34.879Z,86.19
2022-12-14T08:46:03.817Z,86.45
2022-12-14T08:48:30.661Z,86.52
2022-12-14T08:51:10.434Z,86.39
2022-12-14T08:53:38.336Z,86.33
2022-12-14T08:56:10.564Z,86.30
2022-12-14T08:58:37.971Z,86.85
2022-12-14T09:01:09.528Z,86.96
2022-12-14T09:03:36.154Z,86.97
2022-12-14T09:06:07.934Z,86.75
2022-12-14T09:08:35.283Z,86.91
2022-12-14T09:11:03.109Z,87.50
2022-12-14T09:13:30.196Z,87.46
2022-12-14T09:16:02.360Z,87.34
2022-12-14T09:18:31.336Z,87.78
2022-12-14T09:20:58.017Z,88.30
2022-12-14T09:23:27.056Z,88.48
2022-12-14T09:26:14.107Z,88.87
2022-12-14T09:28:42.506Z,88.99
2022-12-14T09:31:12.593Z,88.77
2022-12-14T09:33:39.429Z,89.03
2022-12-14T09:36:09.151Z,88.27
2022-12-14T09:38:37.397Z,88.35
2022-12-14T09:41:19.780Z,88.05
2022-12-14T09:43:53.433Z,87.82
2022-12-14T09:46:23.777Z,88.43
2022-12-14T09:48:52.252Z,88.86
2022-12-14T09:51:21.223Z,88.35
2022-12-14T09:53:51.504Z,88.68
2022-12-14T09:56:20.570Z,88.91
2022-12-14T09:58:56.079Z,88.30
2022-12-14T10:01:22.850Z,88.55
2022-12-14T10:04:06.655Z,88.83
2022-12-14T10:06:58.235Z,88.52
2022-12-14T10:09:49.265Z,88.76
2022-12-14T10:13:00.888Z,88.93
2022-12-14T10:15:59.601Z,88.92
2022-12-14T10:19:11.517Z,89.05
2022-12-14T10:22:18.333Z,89.06
2022-12-14T10:25:05.609Z,88.94
2022-12-14T10:28:01.256Z,88.99
2022-12-14T10:30:21.349Z,89.34
2022-12-14T10:32:54.366Z,89.15
2022-12-14T10:35:38.158Z,88.84
2022-12-14T10:38:11.019Z,89.06
2022-12-14T10:40:49.329Z,89.05
2022-12-14T10:43:43.330Z,89.65
2022-12-14T10:46:31.288Z,89.57
2022-12-14T10:49:36.133Z,89.80
2022-12-14T10:52:08.753Z,89.89
2022-12-14T10:54:40.800Z,88.96
2022-12-14T10:57:07.265Z,89.49
2022-12-14T10:59:44.592Z,89.27
2022-12-14T11:02:22.496Z,88.68
2022-12-14T11:04:59.573Z,87.95
2022-12-14T11:07:38.374Z,88.24
2022-12-14T11:10:32.396Z,88.37
2022-12-14T11:13:06.049Z,88.65
2022-12-14T11:15:34.826Z,87.62
2022-12-14T11:18:16.899Z,87.78
2022-12-14T11:20:57.258Z,87.69
2022-12-14T11:23:27.899Z,88.19
2022-12-14T11:25:57.770Z,87.54
2022-12-14T11:28:39.894Z,87.47
2022-12-14T11:31:27.120Z,86.66
2022-12-14T11:33:56.996Z,85.56
2022-12-14T11:36:43.116Z,85.31
2022-12-14T11:39:15.645Z,84.72
2022-12-14T11:41:46.571Z,84.37
2022-12-14T11:44:16.135Z,83.64
2022-12-14T11:46:46.089Z,83.95
2022-12-14T11:49:23.776Z,83.88
2022-12-14T11:52:05.267Z,84.02
2022-12-14T11:54:33.265Z,83.89
2022-12-14T11:57:04.004Z,83.74
2022-12-14T11:59:38.464Z,83.89
2022-12-14T12:02:17.874Z,84.22
2022-12-14T12:04:53.895Z,83.59
2022-12-14T12:07:28.215Z,82.94
2022-12-14T12:09:55.334Z,82.02
2022-12-14T12:12:23.440Z,81.80
2022-12-14T12:14:55.703Z,82.69
2022-12-14T12:17:43.442Z,83.23
2022-12-14T12:20:30.510Z,82.69
2022-12-14T12:23:11.639Z,82.86
2022-12-14T12:25:39.732Z,83.01
2022-12-14T12:28:20.781Z,82.68
2022-12-14T12:30:54.630Z,81.29
2022-12-14T12:33:47.667Z,81.67
2022-12-14T12:36:22.012Z,81.75
2022-12-14T12:39:02.809Z,81.57
2022-12-14T12:41:41.282Z,80.43
2022-12-14T12:44:21.087Z,80.68
2022-12-14T12:47:23.971Z,79.76
2022-12-14T12:49:48.397Z,79.83
2022-12-14T12:52:27.672Z,78.81
2022-12-14T12:55:14.783Z,78.67
2022-12-14T12:57:45.081Z,78.81
2022-12-14T13:00:27.262Z,79.81
2022-12-14T13:03:09.776Z,80.09
2022-12-14T13:05:48.724Z,80.00
2022-12-14T13:08:35.769Z,80.17
2022-12-14T13:11:29.293Z,80.27
2022-12-14T13:14:02.668Z,80.86
2022-12-14T13:16:34.880Z,81.24
2022-12-14T13:19:48.108Z,81.40
2022-12-14T13:22:06.398Z,81.33
2022-12-14T13:24:34.604Z,81.64
2022-12-14T13:27:19.178Z,82.15
2022-12-14T13:30:13.385Z,82.41
2022-12-14T13:32:49.114Z,81.95
2022-12-14T13:35:37.485Z,81.50
2022-12-14T13:38:13.093Z,81.95
2022-12-14T13:41:02.620Z,81.95
2022-12-14T13:43:54.692Z,82.09
2022-12-14T13:46:26.994Z,82.07
2022-12-14T13:49:00.678Z,82.33
2022-12-14T13:51:40.237Z,82.17
2022-12-14T13:54:20.615Z,82.52
2022-12-14T13:56:47.293Z,82.71
2022-12-14T13:59:38.354Z,82.75
2022-12-14T14:02:06.708Z,82.95
2022-12-14T14:04:35.528Z,83.17
2022-12-14T14:07:23.571Z,83.38
2022-12-14T14:09:55.889Z,83.49
2022-12-14T14:12:44.828Z,83.90
2022-12-14T14:15:35.829Z,83.63
2022-12-14T14:18:12.289Z,83.56
2022-12-14T14:20:58.553Z,83.48
2022-12-14T14:23:31.207Z,83.67
2022-12-14T14:26:17.698Z,83.80
2022-12-14T14:28:45.684Z,83.77
2022-12-14T14:31:16.296Z,84.15
2022-12-14T14:33:55.038Z,84.31
2022-12-14T14:36:33.630Z,84.70
2022-12-14T14:39:02.056Z,84.60
2022-12-14T14:41:36.074Z,84.84
2022-12-14T14:44:17.457Z,85.06
2022-12-14T14:46:49.543Z,84.87
2022-12-14T14:49:36.483Z,85.34
2022-12-14T14:52:41.951Z,85.56
2022-12-14T14:55:54.989Z,85.52
2022-12-14T14:58:36.865Z,85.57
2022-12-14T15:01:06.454Z,85.70
2022-12-14T15:04:02.041Z,85.95
2022-12-14T15:06:37.878Z,86.36
2022-12-14T15:09:17.866Z,86.49
2022-12-14T15:11:51.672Z,86.36
2022-12-14T15:14:46.629Z,86.20
2022-12-14T15:17:17.922Z,86.49
2022-12-14T15:19:53.252Z,86.62
2022-12-14T15:22:41.599Z,87.14
2022-12-14T15:25:24.147Z,87.24
2022-12-14T15:27:51.873Z,87.14
2022-12-14T15:30:27.037Z,87.32
2022-12-14T15:32:57.963Z,87.51
2022-12-14T15:35:28.311Z,87.46
2022-12-14T15:38:00.107Z,87.24
2022-12-14T15:40:32.629Z,87.95
2022-12-14T15:43:15.228Z,87.54
2022-12-14T15:45:44.491Z,87.59
2022-12-14T15:48:14.136Z,87.88
2022-12-14T15:50:45.275Z,87.96
2022-12-14T15:53:18.478Z,87.89
2022-12-14T15:55:56.395Z,87.82
2022-12-14T15:58:37.763Z,88.37
2022-12-14T16:01:17.624Z,88.25
2022-12-14T16:03:49.292Z,87.58
2022-12-14T16:06:17.687Z,87.77
2022-12-14T16:08:51.705Z,87.49
2022-12-14T16:11:27.215Z,87.87
2022-12-14T16:13:56.933Z,87.81
2022-12-14T16:16:23.658Z,88.06
2022-12-14T16:18:51.271Z,88.13
2022-12-14T16:21:34.018Z,87.96
2022-12-14T16:24:20.873Z,88.08
2022-12-14T16:26:58.347Z,88.36
2022-12-14T16:29:28.671Z,88.59
2022-12-14T16:32:07.693Z,88.10
2022-12-14T16:34:34.379Z,88.71
2022-12-14T16:39:50.949Z,88.84
2022-12-14T16:42:26.143Z,89.11
2022-12-14T16:44:56.139Z,88.74
2022-12-14T16:47:34.569Z,88.87
2022-12-14T16:50:01.332Z,89.21
2022-12-14T16:52:30.836Z,89.30
2022-12-14T16:55:11.786Z,89.44
2022-12-14T16:57:55.637Z,89.06
2022-12-14T17:00:25.402Z,88.61
2022-12-14T17:03:04.964Z,89.26
2022-12-14T17:05:56.466Z,88.96
2022-12-14T17:08:23.086Z,89.41
2022-12-14T17:10:50.207Z,89.08
2022-12-14T17:13:17.007Z,89.02
2022-12-14T17:16:04.555Z,89.15
2022-12-14T17:18:39.003Z,89.38
2022-12-14T17:21:07.597Z,89.18
2022-12-14T17:23:38.679Z,89.16
2022-12-14T17:26:05.213Z,89.05
2022-12-14T17:28:34.529Z,89.16
2022-12-14T17:31:02.794Z,89.26
2022-12-14T17:33:31.325Z,89.48
2022-12-14T17:35:58.124Z,88.99
2022-12-14T17:38:24.786Z,89.03
2022-12-14T17:40:53.701Z,89.14
2022-12-14T17:43:24.840Z,88.77
2022-12-14T17:45:52.604Z,89.02
2022-12-14T17:48:19.683Z,89.01
2022-12-14T17:50:49.718Z,88.35
2022-12-14T17:53:21.258Z,88.89
2022-12-14T17:55:48.068Z,89.19
2022-12-14T17:58:14.636Z,88.75
2022-12-14T18:00:59.834Z,88.41
2022-12-14T18:03:29.675Z,88.70
2022-12-14T18:05:58.005Z,88.56
2022-12-14T18:08:26.447Z,88.46
2022-12-14T18:10:59.581Z,88.31
2022-12-14T18:13:27.609Z,88.59
2022-12-14T18:15:54.851Z,88.09
2022-12-14T18:18:23.948Z,88.14
2022-12-14T18:21:00.345Z,88.10
2022-12-14T18:23:28.959Z,87.80
2022-12-14T18:25:59.161Z,88.36
2022-12-14T18:28:25.763Z,88.42
2022-12-14T18:30:56.131Z,87.99
2022-12-14T18:33:25.545Z,87.91
2022-12-14T18:35:53.830Z,87.75
2022-12-14T18:38:21.121Z,87.82
2022-12-14T18:40:50.608Z,87.58
2022-12-14T18:43:28.366Z,87.92
2022-12-14T18:45:56.290Z,87.76
2022-12-14T18:48:24.004Z,87.94
2022-12-14T18:50:53.168Z,87.88
2022-12-14T18:53:22.145Z,87.82
2022-12-14T18:55:49.255Z,87.86
2022-12-14T18:58:19.194Z,87.89
2022-12-14T19:00:46.023Z,87.49
2022-12-14T19:03:15.000Z,87.59
2022-12-14T19:05:43.822Z,87.54
2022-12-14T19:08:11.171Z,87.94
2022-12-14T19:10:40.884Z,87.68
2022-12-14T19:13:09.525Z,87.98
2022-12-14T19:15:36.216Z,88.02
2022-12-14T19:18:02.730Z,87.71
2022-12-14T19:20:29.827Z,87.64
2022-12-14T19:22:56.698Z,87.37
2022-12-14T19:25:24.247Z,87.31
2022-12-14T19:30:39.193Z,87.14
2022-12-14T19:33:05.985Z,87.09
2022-12-14T19:35:32.468Z,87.03
2022-12-14T19:37:59.114Z,87.08
2022-12-14T19:40:26.216Z,87.31
2022-12-14T19:42:53.065Z,87.20
2022-12-14T19:45:19.721Z,86.88
2022-12-14T19:47:46.501Z,87.15
2022-12-14T19:50:14.813Z,87.03
2022-12-14T19:52:42.582Z,87.74
2022-12-14T19:55:09.495Z,88.02
2022-12-14T19:57:37.398Z,87.96
2022-12-14T20:00:05.451Z,88.25
2022-12-14T20:02:37.357Z,88.47
2022-12-14T20:05:05.189Z,88.20
2022-12-14T20:07:31.709Z,87.59
2022-12-14T20:09:58.137Z,87.77
2022-12-14T20:12:24.884Z,87.63
2022-12-14T20:14:51.460Z,87.98
2022-12-14T20:17:19.400Z,87.51
2022-12-14T20:19:46.036Z,87.23
2022-12-14T20:22:14.826Z,87.24
2022-12-14T20:24:42.684Z,87.46
2022-12-14T20:27:09.170Z,87.48
2022-12-14T20:29:37.166Z,87.34
2022-12-14T20:32:03.733Z,87.29
2022-12-14T20:34:30.724Z,87.17
2022-12-14T20:36:57.530Z,86.97
2022-12-14T20:39:24.058Z,87.37
2022-12-14T20:41:50.763Z,87.37
2022-12-14T20:44:17.914Z,87.46
2022-12-14T20:46:46.003Z,87.59
2022-12-14T20:49:16.096Z,87.76
2022-12-14T20:51:44.327Z,88.15
2022-12-14T20:54:14.912Z,88.20
2022-12-14T20:56:41.914Z,88.24
2022-12-14T20:59:09.618Z,88.16
2022-12-14T21:01:41.212Z,88.22
2022-12-14T21:04:08.438Z,88.27
2022-12-14T21:06:40.520Z,88.43
2022-12-14T21:09:11.908Z,88.34
2022-12-14T21:12:08.809Z,88.02
2022-12-14T21:14:43.559Z,88.91
2022-12-14T21:17:10.943Z,89.39
2022-12-14T21:19:37.496Z,89.50
2022-12-14T21:22:10.233Z,89.88
2022-12-14T21:25:01.813Z,90.26
2022-12-14T21:27:26.367Z,90.10
2022-12-14T21:29:53.358Z,90.34
2022-12-14T21:32:21.077Z,90.43
2022-12-14T21:34:47.996Z,90.38
2022-12-14T21:37:15.327Z,90.68
2022-12-14T21:39:42.045Z,90.42
2022-12-14T21:42:12.773Z,90.69
2022-12-14T21:44:40.993Z,90.32
2022-12-14T21:47:11.577Z,90.06
2022-12-14T21:49:39.993Z,89.98
2022-12-14T21:52:07.678Z,89.91
2022-12-14T21:54:34.939Z,89.57
2022-12-14T21:57:21.231Z,89.14
2022-12-14T21:59:47.666Z,89.20
2022-12-14T22:02:15.558Z,89.41
2022-12-14T22:04:46.708Z,89.31
2022-12-14T22:07:15.194Z,89.15
2022-12-14T22:09:41.790Z,89.03
2022-12-14T22:12:08.682Z,88.72
2022-12-14T22:14:35.595Z,88.95
2022-12-14T22:17:02.289Z,88.52
2022-12-14T22:19:29.054Z,88.89
2022-12-14T22:21:55.782Z,88.93
2022-12-14T22:24:23.728Z,89.42
2022-12-14T22:26:51.106Z,89.63
2022-12-14T22:29:18.824Z,89.59
2022-12-14T22:31:45.859Z,89.56
2022-12-14T22:34:17.230Z,89.38
2022-12-14T22:36:44.177Z,90.62
2022-12-14T22:39:10.666Z,90.68
2022-12-14T22:41:37.665Z,90.49
2022-12-14T22:44:05.335Z,90.36
2022-12-14T22:46:33.089Z,90.40
2022-12-14T22:49:04.365Z,90.58
2022-12-14T22:51:31.028Z,90.24
2022-12-14T22:53:57.712Z,90.58
2022-12-14T22:56:46.220Z,90.46
2022-12-14T22:59:17.279Z,90.29
2022-12-14T23:01:49.650Z,90.21
2022-12-14T23:04:17.018Z,90.43
2022-12-14T23:06:43.704Z,91.04
2022-12-14T23:09:28.424Z,90.96
2022-12-14T23:12:21.253Z,91.21
2022-12-14T23:15:07.131Z,91.13
2022-12-14T23:17:52.558Z,90.99
2022-12-14T23:20:37.667Z,90.97
2022-12-14T23:23:25.390Z,90.42
2022-12-14T23:26:10.564Z,90.69
2022-12-14T23:28:56.075Z,90.65
2022-12-14T23:31:41.378Z,90.68
2022-12-14T23:34:26.552Z,91.04
2022-12-14T23:37:16.346Z,91.38
2022-12-14T23:40:04.857Z,91.77
2022-12-14T23:42:49.863Z,91.59
2022-12-14T23:45:35.133Z,91.47
2022-12-14T23:48:20.017Z,91.58
2022-12-14T23:51:05.170Z,91.59
2022-12-14T23:53:50.458Z,91.92
2022-12-14T23:56:35.659Z,91.38
2022-12-14T23:59:22.694Z,91.40
